createdAt,value
2019-04-20T00:01:12.193Z,59.50
2019-04-20T00:03:44.997Z,60.10
2019-04-20T00:06:13.184Z,59.70
2019-04-20T00:08:44.242Z,59.80
2019-04-20T00:11:24.859Z,60.00
2019-04-20T00:13:52.954Z,60.20
2019-04-20T00:16:16.844Z,60.50
2019-04-20T00:18:50.360Z,60.90
2019-04-20T00:21:19.701Z,60.90
2019-04-20T00:23:51.808Z,60.40
2019-04-20T00:26:52.224Z,59.50
2019-04-20T00:29:10.308Z,58.90
2019-04-20T00:31:40.290Z,58.50
2019-04-20T00:34:08.009Z,58.50
2019-04-20T00:36:29.078Z,58.20
2019-04-20T00:39:03.727Z,57.90
2019-04-20T00:41:34.278Z,58.30
2019-04-20T00:44:08.327Z,58.80
2019-04-20T00:46:41.942Z,59.30
2019-04-20T00:49:22.828Z,59.80
2019-04-20T00:51:51.105Z,60.40
2019-04-20T00:54:05.742Z,60.00
2019-04-20T00:56:35.438Z,59.60
2019-04-20T00:59:17.170Z,59.40
2019-04-20T01:01:52.296Z,59.60
2019-04-20T01:04:23.833Z,59.40
2019-04-20T01:06:53.894Z,59.50
2019-04-20T01:09:11.949Z,59.40
2019-04-20T01:11:45.173Z,59.90
2019-04-20T01:14:14.189Z,59.80
2019-04-20T01:16:49.178Z,60.60
2019-04-20T01:19:15.906Z,60.80
2019-04-20T01:21:52.579Z,61.10
2019-04-20T01:24:24.837Z,61.20
2019-04-20T01:26:53.356Z,61.70
2019-04-20T01:29:30.285Z,61.00
2019-04-20T01:32:05.776Z,61.60
2019-04-20T01:34:35.852Z,61.40
2019-04-20T01:37:09.514Z,62.50
2019-04-20T01:39:32.931Z,62.30
2019-04-20T01:41:56.113Z,63.20
2019-04-20T01:44:31.739Z,63.20
2019-04-20T01:47:00.099Z,62.70
2019-04-20T01:49:32.412Z,62.60
2019-04-20T01:52:11.939Z,62.90
2019-04-20T01:54:52.900Z,63.20
2019-04-20T01:57:13.878Z,63.20
2019-04-20T01:59:47.846Z,63.50
2019-04-20T02:02:15.226Z,63.70
2019-04-20T02:04:45.991Z,64.40
2019-04-20T02:07:17.304Z,64.70
2019-04-20T02:09:51.318Z,64.20
2019-04-20T02:12:23.627Z,64.40
2019-04-20T02:14:53.669Z,64.70
2019-04-20T02:17:27.920Z,65.50
2019-04-20T02:20:12.554Z,65.20
2019-04-20T02:22:38.565Z,65.40
2019-04-20T02:24:51.293Z,65.50
2019-04-20T02:27:31.334Z,66.00
2019-04-20T02:30:24.707Z,66.70
2019-04-20T02:33:00.389Z,67.00
2019-04-20T02:35:25.616Z,67.20
2019-04-20T02:40:46.736Z,66.50
2019-04-20T02:43:05.511Z,66.50
2019-04-20T02:45:42.273Z,67.10
2019-04-20T03:00:35.168Z,70.80
2019-04-20T03:02:55.922Z,71.80
2019-04-20T03:05:28.120Z,73.90
2019-04-20T03:08:04.337Z,75.20
2019-04-20T03:10:50.372Z,76.10
2019-04-20T03:13:08.800Z,76.60
2019-04-20T03:15:42.118Z,78.10
2019-04-20T03:18:13.899Z,78.30
2019-04-20T03:20:49.723Z,78.50
2019-04-20T03:25:49.543Z,80.20
2019-04-20T03:28:20.613Z,80.30
2019-04-20T03:31:33.147Z,80.80
2019-04-20T03:33:47.498Z,81.20
2019-04-20T03:36:07.875Z,82.40
2019-04-20T03:38:26.247Z,83.40
2019-04-20T03:40:48.324Z,84.10
2019-04-20T03:43:08.230Z,84.20
2019-04-20T03:45:48.406Z,84.50
2019-04-20T03:48:32.248Z,84.50
2019-04-20T03:53:38.183Z,85.00
2019-04-20T03:56:02.585Z,85.00
2019-04-20T03:58:37.643Z,85.20
2019-04-20T04:01:13.433Z,85.50
2019-04-20T04:06:10.504Z,86.90
2019-04-20T04:08:36.281Z,86.90
2019-04-20T04:11:23.118Z,87.20
2019-04-20T04:13:33.526Z,87.80
2019-04-20T04:16:07.882Z,88.20
2019-04-20T04:18:39.470Z,88.70
2019-04-20T04:21:09.940Z,88.30
2019-04-20T04:23:56.226Z,87.70
2019-04-20T04:26:29.215Z,86.50
2019-04-20T04:28:53.771Z,86.20
2019-04-20T04:31:33.373Z,86.60
2019-04-20T04:33:58.155Z,87.60
2019-04-20T04:36:29.001Z,87.90
2019-04-20T04:39:06.391Z,88.40
2019-04-20T04:41:32.048Z,88.20
2019-04-20T04:44:04.503Z,87.50
2019-04-20T04:46:18.501Z,87.40
2019-04-20T04:48:52.745Z,87.10
2019-04-20T04:51:27.398Z,86.40
2019-04-20T04:53:59.889Z,85.90
2019-04-20T04:56:26.406Z,86.00
2019-04-20T04:58:54.353Z,86.40
2019-04-20T05:01:28.606Z,86.20
2019-04-20T05:06:37.532Z,84.70
2019-04-20T05:09:00.823Z,84.10
2019-04-20T05:11:30.033Z,83.00
2019-04-20T05:14:04.113Z,83.90
2019-04-20T05:16:54.892Z,84.00
2019-04-20T05:19:26.178Z,82.30
2019-04-20T05:22:02.119Z,82.10
2019-04-20T05:24:26.863Z,81.80
2019-04-20T05:27:01.972Z,82.00
2019-04-20T05:29:18.009Z,81.70
2019-04-20T05:31:49.339Z,80.00
2019-04-20T05:34:38.969Z,79.00
2019-04-20T05:37:20.938Z,77.80
2019-04-20T05:39:56.257Z,75.70
2019-04-20T05:42:23.382Z,73.50
2019-04-20T05:44:55.716Z,72.80
2019-04-20T05:47:26.976Z,70.00
2019-04-20T05:49:53.816Z,68.80
2019-04-20T05:52:37.628Z,68.10
2019-04-20T05:55:04.122Z,66.70
2019-04-20T05:57:40.111Z,66.40
2019-04-20T06:00:21.807Z,66.10
2019-04-20T06:02:31.898Z,64.90
2019-04-20T06:07:35.849Z,64.80
2019-04-20T06:10:18.944Z,64.30
2019-04-20T06:12:37.349Z,65.00
2019-04-20T06:15:06.828Z,63.90
2019-04-20T06:17:44.452Z,64.00
2019-04-20T06:20:11.468Z,62.70
2019-04-20T06:22:50.571Z,63.40
2019-04-20T06:27:52.423Z,62.60
2019-04-20T06:30:15.719Z,61.20
2019-04-20T06:33:06.857Z,62.10
2019-04-20T06:35:47.907Z,60.30
2019-04-20T06:38:07.175Z,60.40
2019-04-20T06:40:52.445Z,60.40
2019-04-20T06:43:04.137Z,60.10
2019-04-20T06:45:33.316Z,61.00
2019-04-20T06:48:05.647Z,59.70
2019-04-20T06:50:33.003Z,58.50
2019-04-20T06:53:16.332Z,58.10
2019-04-20T06:55:42.969Z,58.30
2019-04-20T06:58:12.333Z,58.90
2019-04-20T07:00:44.470Z,58.80
2019-04-20T07:03:22.043Z,58.80
2019-04-20T07:05:43.939Z,58.60
2019-04-20T07:08:28.977Z,58.90
2019-04-20T07:10:53.148Z,57.60
2019-04-20T07:13:06.208Z,57.20
2019-04-20T07:15:45.146Z,56.30
2019-04-20T07:18:22.991Z,54.70
2019-04-20T07:21:07.249Z,56.10
2019-04-20T07:23:26.893Z,56.20
2019-04-20T07:25:56.962Z,55.70
2019-04-20T07:28:35.591Z,56.70
2019-04-20T07:30:55.376Z,54.40
2019-04-20T07:33:32.276Z,55.60
2019-04-20T07:36:05.907Z,54.80
2019-04-20T07:38:54.261Z,54.00
2019-04-20T07:41:23.749Z,54.40
2019-04-20T07:43:54.145Z,52.60
2019-04-20T07:46:25.839Z,55.60
2019-04-20T07:48:45.537Z,53.90
2019-04-20T07:51:05.864Z,52.30
2019-04-20T07:53:40.351Z,53.30
2019-04-20T07:56:17.744Z,52.80
2019-04-20T07:58:38.084Z,53.80
2019-04-20T08:01:30.239Z,53.40
2019-04-20T08:03:55.587Z,53.90
2019-04-20T08:06:14.478Z,53.40
2019-04-20T08:08:55.904Z,50.30
2019-04-20T08:11:32.084Z,54.20
2019-04-20T08:14:07.368Z,53.60
2019-04-20T08:16:42.375Z,51.00
2019-04-20T08:19:01.239Z,54.70
2019-04-20T08:21:35.123Z,53.10
2019-04-20T08:24:01.005Z,52.10
2019-04-20T08:26:23.509Z,52.00
2019-04-20T08:28:55.224Z,50.40
2019-04-20T08:31:37.095Z,55.70
2019-04-20T08:34:22.706Z,50.30
2019-04-20T08:36:45.450Z,51.70
2019-04-20T08:41:50.394Z,50.50
2019-04-20T08:44:44.170Z,49.30
2019-04-20T08:47:01.800Z,48.00
2019-04-20T08:49:27.715Z,49.30
2019-04-20T08:52:01.845Z,49.50
2019-04-20T08:54:23.768Z,50.30
2019-04-20T08:56:43.351Z,47.30
2019-04-20T08:59:06.751Z,49.50
2019-04-20T09:01:38.731Z,48.10
2019-04-20T09:04:17.761Z,49.20
2019-04-20T09:06:56.496Z,48.30
2019-04-20T09:09:41.375Z,47.10
2019-04-20T09:12:03.672Z,48.60
2019-04-20T09:14:18.568Z,48.00
2019-04-20T09:16:59.285Z,47.20
2019-04-20T09:19:29.953Z,47.40
2019-04-20T09:22:07.973Z,45.50
2019-04-20T09:24:56.287Z,48.60
2019-04-20T09:27:11.334Z,45.90
2019-04-20T09:29:40.736Z,48.70
2019-04-20T09:32:16.945Z,46.10
2019-04-20T09:34:55.780Z,48.50
2019-04-20T09:37:24.747Z,49.60
2019-04-20T09:40:02.411Z,46.90
2019-04-20T09:42:11.862Z,47.70
2019-04-20T09:44:46.036Z,49.10
2019-04-20T09:47:14.164Z,47.40
2019-04-20T09:49:55.059Z,45.10
2019-04-20T09:52:29.094Z,46.90
2019-04-20T09:55:04.309Z,47.20
2019-04-20T09:57:33.382Z,47.10
2019-04-20T10:00:05.703Z,45.70
2019-04-20T10:02:24.901Z,44.60
2019-04-20T10:04:53.260Z,42.80
2019-04-20T10:07:27.191Z,45.20
2019-04-20T10:09:53.838Z,46.00
2019-04-20T10:12:24.071Z,44.30
2019-04-20T10:14:58.499Z,43.70
2019-04-20T10:17:27.177Z,44.90
2019-04-20T10:19:57.672Z,43.60
2019-04-20T10:22:28.640Z,42.70
2019-04-20T10:24:58.390Z,40.10
2019-04-20T10:27:28.454Z,43.10
2019-04-20T10:30:00.741Z,42.60
2019-04-20T10:32:34.219Z,40.40
2019-04-20T10:34:59.932Z,39.80
2019-04-20T10:37:31.534Z,41.90
2019-04-20T10:40:02.772Z,40.10
2019-04-20T10:42:32.599Z,38.80
2019-04-20T10:45:02.884Z,36.20
2019-04-20T10:47:34.931Z,38.00
2019-04-20T10:50:07.110Z,39.70
2019-04-20T10:52:38.039Z,37.50
2019-04-20T10:55:10.254Z,38.80
2019-04-20T10:57:39.829Z,38.40
2019-04-20T11:00:11.333Z,38.50
2019-04-20T11:02:43.970Z,39.10
2019-04-20T11:05:12.773Z,38.00
2019-04-20T11:07:42.661Z,37.60
2019-04-20T11:10:18.477Z,37.40
2019-04-20T11:12:44.278Z,37.90
2019-04-20T11:15:14.607Z,37.80
2019-04-20T11:17:45.742Z,37.10
2019-04-20T11:20:15.429Z,36.50
2019-04-20T11:22:44.783Z,37.00
2019-04-20T11:25:14.491Z,37.50
2019-04-20T11:27:43.982Z,36.00
2019-04-20T11:30:14.125Z,37.90
2019-04-20T11:32:44.293Z,39.50
2019-04-20T11:35:23.244Z,37.90
2019-04-20T11:37:44.980Z,37.60
2019-04-20T11:40:15.004Z,35.60
2019-04-20T11:42:45.658Z,35.20
2019-04-20T11:45:15.608Z,33.90
2019-04-20T11:47:45.312Z,31.50
2019-04-20T11:50:15.620Z,34.00
2019-04-20T11:52:49.905Z,32.00
2019-04-20T11:55:20.194Z,33.80
2019-04-20T11:57:49.784Z,35.70
2019-04-20T12:00:23.528Z,32.40
2019-04-20T12:02:58.568Z,35.90
2019-04-20T12:05:35.630Z,31.80
2019-04-20T12:08:00.916Z,29.60
2019-04-20T12:10:31.527Z,31.50
2019-04-20T12:13:03.848Z,34.20
2019-04-20T12:15:36.511Z,32.40
2019-04-20T12:18:05.286Z,32.60
2019-04-20T12:20:36.571Z,31.70
2019-04-20T12:23:06.479Z,30.10
2019-04-20T12:25:40.858Z,29.60
2019-04-20T12:28:09.583Z,29.50
2019-04-20T12:30:39.751Z,31.10
2019-04-20T12:33:09.570Z,30.40
2019-04-20T12:35:40.353Z,32.80
2019-04-20T12:38:10.561Z,31.40
2019-04-20T12:40:41.944Z,31.70
2019-04-20T12:43:13.112Z,29.80
2019-04-20T12:45:44.045Z,30.30
2019-04-20T12:48:13.688Z,27.30
2019-04-20T12:50:43.774Z,30.80
2019-04-20T12:53:14.737Z,29.20
2019-04-20T12:55:44.550Z,31.90
2019-04-20T12:58:14.602Z,30.70
2019-04-20T13:00:49.293Z,29.20
2019-04-20T13:03:19.384Z,29.70
2019-04-20T13:05:50.039Z,28.20
2019-04-20T13:08:29.595Z,28.60
2019-04-20T13:10:52.770Z,31.30
2019-04-20T13:13:22.735Z,28.30
2019-04-20T13:15:52.305Z,28.00
2019-04-20T13:18:24.143Z,28.10
2019-04-20T13:20:57.872Z,28.00
2019-04-20T13:23:26.852Z,28.10
2019-04-20T13:25:57.124Z,32.20
2019-04-20T13:28:26.894Z,28.20
2019-04-20T13:30:57.858Z,27.80
2019-04-20T13:33:27.717Z,27.90
2019-04-20T13:35:58.485Z,28.00
2019-04-20T13:38:30.193Z,27.10
2019-04-20T13:40:59.889Z,25.70
2019-04-20T13:43:29.988Z,26.40
2019-04-20T13:46:00.774Z,28.00
2019-04-20T13:48:31.046Z,28.20
2019-04-20T13:51:02.365Z,26.60
2019-04-20T13:53:32.950Z,27.40
2019-04-20T13:56:02.538Z,27.20
2019-04-20T13:58:35.949Z,26.80
2019-04-20T14:01:08.509Z,27.50
2019-04-20T14:03:38.816Z,26.50
2019-04-20T14:06:09.018Z,26.80
2019-04-20T14:08:39.171Z,27.50
2019-04-20T14:11:09.447Z,28.00
2019-04-20T14:13:45.323Z,27.40
2019-04-20T14:16:14.262Z,28.50
2019-04-20T14:18:44.982Z,29.60
2019-04-20T14:21:14.640Z,28.10
2019-04-20T14:23:45.299Z,28.20
2019-04-20T14:26:15.048Z,28.50
2019-04-20T14:28:45.134Z,29.00
2019-04-20T14:31:16.164Z,30.00
2019-04-20T14:33:46.741Z,27.60
2019-04-20T14:36:17.478Z,27.80
2019-04-20T14:38:48.666Z,29.20
2019-04-20T14:41:19.888Z,27.60
2019-04-20T14:43:51.131Z,28.60
2019-04-20T14:46:21.022Z,27.50
2019-04-20T14:48:50.633Z,28.20
2019-04-20T14:51:19.946Z,27.50
2019-04-20T14:53:51.657Z,28.40
2019-04-20T14:56:20.995Z,27.00
2019-04-20T14:58:53.516Z,27.30
2019-04-20T15:01:24.852Z,27.20
2019-04-20T15:04:00.166Z,28.30
2019-04-20T15:06:25.517Z,26.30
2019-04-20T15:08:56.724Z,26.90
2019-04-20T15:11:27.109Z,25.70
2019-04-20T15:13:56.842Z,26.40
2019-04-20T15:16:26.578Z,27.80
2019-04-20T15:18:57.961Z,27.30
2019-04-20T15:21:29.439Z,26.60
2019-04-20T15:23:59.481Z,27.90
2019-04-20T15:26:29.097Z,26.90
2019-04-20T15:28:58.495Z,27.10
2019-04-20T15:31:28.254Z,26.70
2019-04-20T15:33:59.021Z,26.70
2019-04-20T15:36:29.359Z,26.10
2019-04-20T15:38:59.050Z,26.80
2019-04-20T15:41:29.392Z,26.80
2019-04-20T15:43:59.493Z,26.40
2019-04-20T15:46:31.344Z,25.60
2019-04-20T15:48:59.920Z,26.00
2019-04-20T15:51:29.985Z,25.70
2019-04-20T15:53:59.767Z,25.80
2019-04-20T15:56:29.376Z,25.10
2019-04-20T15:58:58.830Z,25.20
2019-04-20T16:01:30.284Z,25.00
2019-04-20T16:04:01.685Z,25.10
2019-04-20T16:06:32.654Z,23.70
2019-04-20T16:09:06.120Z,23.20
2019-04-20T16:11:37.015Z,21.80
2019-04-20T16:14:07.272Z,20.90
2019-04-20T16:16:37.352Z,21.00
2019-04-20T16:19:13.667Z,22.00
2019-04-20T16:21:39.674Z,22.50
2019-04-20T16:24:11.029Z,19.20
2019-04-20T16:26:42.250Z,18.70
2019-04-20T16:29:11.751Z,19.10
2019-04-20T16:31:43.937Z,20.20
2019-04-20T16:34:13.352Z,18.90
2019-04-20T16:36:44.484Z,19.20
2019-04-20T16:39:14.481Z,19.80
2019-04-20T16:41:44.465Z,20.10
2019-04-20T16:44:17.432Z,19.20
2019-04-20T16:46:45.886Z,19.00
2019-04-20T16:49:16.983Z,19.20
2019-04-20T16:51:47.119Z,19.70
2019-04-20T16:54:17.609Z,20.50
2019-04-20T16:56:48.557Z,19.60
2019-04-20T16:59:19.602Z,19.80
2019-04-20T17:01:50.530Z,20.80
2019-04-20T17:04:22.663Z,21.40
2019-04-20T17:06:53.959Z,19.60
2019-04-20T17:09:24.135Z,18.60
2019-04-20T17:11:54.015Z,19.10
2019-04-20T17:14:23.940Z,20.30
2019-04-20T17:16:53.929Z,20.10
2019-04-20T17:19:23.861Z,21.80
2019-04-20T17:21:57.062Z,22.90
2019-04-20T17:24:25.116Z,24.30
2019-04-20T17:26:57.046Z,25.00
2019-04-20T17:29:28.325Z,26.50
2019-04-20T17:31:58.079Z,26.00
2019-04-20T17:34:44.369Z,26.70
2019-04-20T17:36:58.471Z,27.00
2019-04-20T17:39:38.138Z,27.50
2019-04-20T17:42:12.818Z,37.40
2019-04-20T17:44:44.819Z,41.30
2019-04-20T17:47:24.930Z,41.80
2019-04-20T17:49:51.325Z,45.90
2019-04-20T17:52:28.022Z,47.80
2019-04-20T17:54:37.749Z,49.30
2019-04-20T17:57:09.294Z,50.20
2019-04-20T17:59:47.110Z,50.20
2019-04-20T18:02:25.545Z,48.50
2019-04-20T18:05:12.676Z,44.70
2019-04-20T18:07:41.239Z,43.70
2019-04-20T18:10:11.449Z,43.40
2019-04-20T18:12:31.355Z,44.60
2019-04-20T18:15:10.241Z,46.90
2019-04-20T18:17:40.363Z,47.40
2019-04-20T18:20:07.164Z,46.20
2019-04-20T18:22:44.192Z,46.00
2019-04-20T18:25:29.870Z,45.20
2019-04-20T18:28:01.228Z,47.40
2019-04-20T18:30:27.411Z,48.10
2019-04-20T18:32:47.385Z,48.00
2019-04-20T18:35:20.259Z,49.40
2019-04-20T18:37:53.617Z,51.30
2019-04-20T18:40:28.993Z,51.00
2019-04-20T18:43:01.742Z,50.80
2019-04-20T18:45:39.904Z,50.20
2019-04-20T18:48:11.657Z,53.10
2019-04-20T18:50:32.882Z,52.50
2019-04-20T18:52:57.727Z,50.10
2019-04-20T18:55:38.830Z,49.30
2019-04-20T18:57:59.380Z,50.00
2019-04-20T19:00:33.879Z,49.90
2019-04-20T19:03:09.643Z,50.50
2019-04-20T19:05:31.640Z,50.80
2019-04-20T19:08:05.298Z,49.60
2019-04-20T19:10:36.379Z,48.50
2019-04-20T19:13:08.125Z,49.70
2019-04-20T19:15:56.522Z,49.70
2019-04-20T19:18:23.822Z,51.50
2019-04-20T19:20:43.239Z,52.00
2019-04-20T19:23:12.803Z,52.30
2019-04-20T19:25:44.086Z,51.50
2019-04-20T19:28:14.450Z,50.20
2019-04-20T19:30:55.692Z,49.50
2019-04-20T19:33:30.936Z,48.80
2019-04-20T19:35:56.106Z,47.90
2019-04-20T19:38:23.870Z,49.30
2019-04-20T19:40:58.168Z,49.80
2019-04-20T19:43:28.786Z,52.00
2019-04-20T19:46:31.192Z,51.40
2019-04-20T19:48:36.878Z,53.70
2019-04-20T19:51:17.611Z,54.70
2019-04-20T19:53:48.829Z,53.70
2019-04-20T19:56:09.639Z,55.20
2019-04-20T19:58:39.810Z,54.00
2019-04-20T20:01:01.203Z,51.70
2019-04-20T20:03:30.298Z,50.20
2019-04-20T20:06:01.507Z,49.90
2019-04-20T20:08:35.805Z,49.80
2019-04-20T20:11:04.864Z,51.30
2019-04-20T20:13:42.999Z,51.20
2019-04-20T20:16:10.609Z,51.10
2019-04-20T20:18:52.148Z,51.30
2019-04-20T20:21:19.994Z,52.60
2019-04-20T20:23:38.354Z,51.50
2019-04-20T20:26:12.997Z,51.20
2019-04-20T20:28:45.593Z,52.20
2019-04-20T20:31:21.918Z,53.80
2019-04-20T20:33:54.652Z,53.80
2019-04-20T20:36:19.674Z,54.40
2019-04-20T20:38:50.281Z,54.60
2019-04-20T20:41:23.647Z,54.60
2019-04-20T20:43:56.546Z,54.10
2019-04-20T20:46:27.456Z,52.60
2019-04-20T20:49:12.051Z,52.20
2019-04-20T20:51:44.245Z,52.30
2019-04-20T20:53:59.028Z,51.40
2019-04-20T20:56:26.162Z,51.60
2019-04-20T20:59:00.531Z,52.10
2019-04-20T21:01:27.047Z,51.20
2019-04-20T21:03:54.757Z,49.70
2019-04-20T21:06:24.441Z,49.50
2019-04-20T21:08:56.648Z,51.00
2019-04-20T21:11:29.648Z,51.50
2019-04-20T21:13:57.532Z,53.30
2019-04-20T21:16:33.008Z,53.20
2019-04-20T21:19:15.909Z,52.20
2019-04-20T21:21:42.542Z,50.30
2019-04-20T21:24:07.547Z,48.40
2019-04-20T21:26:38.737Z,45.50
2019-04-20T21:29:04.075Z,50.70
2019-04-20T21:31:34.394Z,52.90
2019-04-20T21:34:08.632Z,52.70
2019-04-20T21:36:36.897Z,51.20
2019-04-20T21:39:16.288Z,53.40
2019-04-20T21:41:46.977Z,53.70
2019-04-20T21:44:18.163Z,53.60
2019-04-20T21:46:47.366Z,53.70
2019-04-20T21:49:26.357Z,53.40
2019-04-20T21:51:50.236Z,53.50
2019-04-20T21:54:15.991Z,53.00
2019-04-20T21:56:53.899Z,52.00
2019-04-20T21:59:24.428Z,51.40
2019-04-20T22:01:58.479Z,52.10
2019-04-20T22:04:21.577Z,51.40
2019-04-20T22:06:50.481Z,50.10
2019-04-20T22:09:20.373Z,49.40
2019-04-20T22:11:51.918Z,51.00
2019-04-20T22:14:24.954Z,49.80
2019-04-20T22:16:56.743Z,50.70
2019-04-20T22:19:34.293Z,51.90
2019-04-20T22:22:05.510Z,51.70
2019-04-20T22:24:42.151Z,51.50
2019-04-20T22:27:06.277Z,52.30
2019-04-20T22:29:30.112Z,51.60
2019-04-20T22:32:07.185Z,51.70
2019-04-20T22:34:31.900Z,50.50
2019-04-20T22:37:02.298Z,47.80
2019-04-20T22:39:41.329Z,48.10
2019-04-20T22:42:09.702Z,54.30
2019-04-20T22:44:36.963Z,55.90
2019-04-20T22:47:13.798Z,55.40
2019-04-20T22:49:50.273Z,56.80
2019-04-20T22:52:26.273Z,57.60
2019-04-20T22:54:55.228Z,58.10
2019-04-20T22:57:23.596Z,55.30
2019-04-20T22:59:52.364Z,55.40
2019-04-20T23:02:13.502Z,53.80
2019-04-20T23:04:44.591Z,54.40
2019-04-20T23:07:14.772Z,55.70
2019-04-20T23:09:50.438Z,55.50
2019-04-20T23:12:20.714Z,54.20
2019-04-20T23:14:46.777Z,54.80
2019-04-20T23:17:23.678Z,53.50
2019-04-20T23:19:52.856Z,53.40
2019-04-20T23:22:19.209Z,56.00
2019-04-20T23:24:49.261Z,55.60
2019-04-20T23:27:24.531Z,54.70
2019-04-20T23:29:51.047Z,52.80
2019-04-20T23:32:21.762Z,57.60
2019-04-20T23:34:57.730Z,53.90
2019-04-20T23:37:30.102Z,55.40
2019-04-20T23:39:54.810Z,53.00
2019-04-20T23:42:27.996Z,51.60
2019-04-20T23:45:00.367Z,51.00
2019-04-20T23:47:32.073Z,51.40
2019-04-20T23:50:16.330Z,51.00
2019-04-20T23:52:56.428Z,52.80
2019-04-20T23:55:09.817Z,53.30
2019-04-20T23:57:37.896Z,53.40
